sensor_id;sensor_type;location;lat;lon;timestamp;temperature;humidity
15143;DHT22;7672;50.834;6.286;2022-09-27T00:01:05;13.30;99.90
15143;DHT22;7672;50.834;6.286;2022-09-27T00:03:33;13.30;99.90
15143;DHT22;7672;50.834;6.286;2022-09-27T00:08:52;13.30;99.90
15143;DHT22;7672;50.834;6.286;2022-09-27T00:13:55;13.20;99.90
15143;DHT22;7672;50.834;6.286;2022-09-27T00:16:29;13.30;99.90
15143;DHT22;7672;50.834;6.286;2022-09-27T00:19:01;13.20;99.90
15143;DHT22;7672;50.834;6.286;2022-09-27T00:21:32;13.20;99.90
15143;DHT22;7672;50.834;6.286;2022-09-27T00:24:00;13.20;99.90
15143;DHT22;7672;50.834;6.286;2022-09-27T00:26:27;13.20;99.90
15143;DHT22;7672;50.834;6.286;2022-09-27T00:28:55;13.60;99.90
15143;DHT22;7672;50.834;6.286;2022-09-27T00:31:28;13.20;99.90
15143;DHT22;7672;50.834;6.286;2022-09-27T00:33:58;13.20;99.90
15143;DHT22;7672;50.834;6.286;2022-09-27T00:36:28;13.20;99.90
15143;DHT22;7672;50.834;6.286;2022-09-27T00:38:56;13.20;99.90
15143;DHT22;7672;50.834;6.286;2022-09-27T00:41:33;13.20;99.90
15143;DHT22;7672;50.834;6.286;2022-09-27T00:44:05;13.20;99.90
15143;DHT22;7672;50.834;6.286;2022-09-27T00:50:03;13.20;99.90
15143;DHT22;7672;50.834;6.286;2022-09-27T00:52:40;13.20;99.90
15143;DHT22;7672;50.834;6.286;2022-09-27T00:55:19;13.20;99.90
15143;DHT22;7672;50.834;6.286;2022-09-27T00:57:49;13.20;99.90
15143;DHT22;7672;50.834;6.286;2022-09-27T01:00:17;13.20;99.90
15143;DHT22;7672;50.834;6.286;2022-09-27T01:02:49;13.20;99.90
15143;DHT22;7672;50.834;6.286;2022-09-27T01:05:20;13.20;99.90
15143;DHT22;7672;50.834;6.286;2022-09-27T01:07:50;13.20;99.90
15143;DHT22;7672;50.834;6.286;2022-09-27T01:10:17;13.20;99.90
15143;DHT22;7672;50.834;6.286;2022-09-27T01:13:14;13.20;99.90
15143;DHT22;7672;50.834;6.286;2022-09-27T01:16:00;13.20;99.90
15143;DHT22;7672;50.834;6.286;2022-09-27T01:31:23;13.10;99.90
15143;DHT22;7672;50.834;6.286;2022-09-27T01:34:11;13.10;99.90
15143;DHT22;7672;50.834;6.286;2022-09-27T01:40:01;13.10;99.90
15143;DHT22;7672;50.834;6.286;2022-09-27T01:46:43;13.10;99.90
15143;DHT22;7672;50.834;6.286;2022-09-27T01:49:16;13.10;99.90
15143;DHT22;7672;50.834;6.286;2022-09-27T01:51:57;13.00;99.90
15143;DHT22;7672;50.834;6.286;2022-09-27T01:54:33;13.20;99.90
15143;DHT22;7672;50.834;6.286;2022-09-27T01:57:06;13.00;99.90
15143;DHT22;7672;50.834;6.286;2022-09-27T02:02:07;13.00;99.90
15143;DHT22;7672;50.834;6.286;2022-09-27T02:04:36;13.00;99.90
15143;DHT22;7672;50.834;6.286;2022-09-27T02:07:51;12.90;99.90
15143;DHT22;7672;50.834;6.286;2022-09-27T02:10:23;12.90;99.90
15143;DHT22;7672;50.834;6.286;2022-09-27T02:15:51;12.90;99.90
15143;DHT22;7672;50.834;6.286;2022-09-27T02:18:50;12.80;99.90
15143;DHT22;7672;50.834;6.286;2022-09-27T02:24:41;12.80;99.90
15143;DHT22;7672;50.834;6.286;2022-09-27T02:27:23;12.80;99.90
15143;DHT22;7672;50.834;6.286;2022-09-27T02:30:15;12.80;99.90
15143;DHT22;7672;50.834;6.286;2022-09-27T02:32:43;12.80;99.90
15143;DHT22;7672;50.834;6.286;2022-09-27T02:35:18;12.70;99.90
15143;DHT22;7672;50.834;6.286;2022-09-27T02:37:50;12.70;99.90
15143;DHT22;7672;50.834;6.286;2022-09-27T02:40:17;12.70;99.90
15143;DHT22;7672;50.834;6.286;2022-09-27T02:42:45;12.70;99.90
15143;DHT22;7672;50.834;6.286;2022-09-27T02:45:14;12.70;99.90
15143;DHT22;7672;50.834;6.286;2022-09-27T02:48:13;12.70;99.90
15143;DHT22;7672;50.834;6.286;2022-09-27T03:05:06;12.60;99.90
15143;DHT22;7672;50.834;6.286;2022-09-27T03:07:37;12.60;99.90
15143;DHT22;7672;50.834;6.286;2022-09-27T03:10:06;12.50;99.90
15143;DHT22;7672;50.834;6.286;2022-09-27T03:12:33;12.50;99.90
15143;DHT22;7672;50.834;6.286;2022-09-27T03:15:00;12.50;99.90
15143;DHT22;7672;50.834;6.286;2022-09-27T03:17:27;12.50;99.90
15143;DHT22;7672;50.834;6.286;2022-09-27T03:19:54;12.50;99.90
15143;DHT22;7672;50.834;6.286;2022-09-27T03:22:21;12.50;99.90
15143;DHT22;7672;50.834;6.286;2022-09-27T03:24:48;12.50;99.90
15143;DHT22;7672;50.834;6.286;2022-09-27T03:27:14;12.60;99.90
15143;DHT22;7672;50.834;6.286;2022-09-27T03:29:41;12.60;99.90
15143;DHT22;7672;50.834;6.286;2022-09-27T03:32:08;12.60;99.90
15143;DHT22;7672;50.834;6.286;2022-09-27T03:34:35;12.60;99.90
15143;DHT22;7672;50.834;6.286;2022-09-27T03:37:02;12.60;99.90
15143;DHT22;7672;50.834;6.286;2022-09-27T03:39:29;12.50;99.90
15143;DHT22;7672;50.834;6.286;2022-09-27T03:41:56;12.50;99.90
15143;DHT22;7672;50.834;6.286;2022-09-27T03:44:23;12.60;99.90
15143;DHT22;7672;50.834;6.286;2022-09-27T03:46:49;12.80;99.90
15143;DHT22;7672;50.834;6.286;2022-09-27T03:49:16;12.50;99.90
15143;DHT22;7672;50.834;6.286;2022-09-27T03:51:43;12.50;99.90
15143;DHT22;7672;50.834;6.286;2022-09-27T03:54:10;12.50;99.90
15143;DHT22;7672;50.834;6.286;2022-09-27T03:56:37;12.50;99.90
15143;DHT22;7672;50.834;6.286;2022-09-27T03:59:04;12.60;99.90
15143;DHT22;7672;50.834;6.286;2022-09-27T04:01:31;12.50;99.90
15143;DHT22;7672;50.834;6.286;2022-09-27T04:03:58;12.50;99.90
15143;DHT22;7672;50.834;6.286;2022-09-27T04:06:25;12.80;99.90
15143;DHT22;7672;50.834;6.286;2022-09-27T04:08:52;12.40;99.90
15143;DHT22;7672;50.834;6.286;2022-09-27T04:11:19;12.40;99.90
15143;DHT22;7672;50.834;6.286;2022-09-27T04:13:48;12.40;99.90
15143;DHT22;7672;50.834;6.286;2022-09-27T04:16:15;12.40;99.90
15143;DHT22;7672;50.834;6.286;2022-09-27T04:18:42;12.70;99.90
15143;DHT22;7672;50.834;6.286;2022-09-27T04:21:09;12.30;99.90
15143;DHT22;7672;50.834;6.286;2022-09-27T04:23:36;12.30;99.90
15143;DHT22;7672;50.834;6.286;2022-09-27T04:26:03;12.30;99.90
15143;DHT22;7672;50.834;6.286;2022-09-27T04:28:31;12.30;99.90
15143;DHT22;7672;50.834;6.286;2022-09-27T04:30:58;12.30;99.90
15143;DHT22;7672;50.834;6.286;2022-09-27T04:33:25;12.20;99.90
15143;DHT22;7672;50.834;6.286;2022-09-27T04:35:52;12.20;99.90
15143;DHT22;7672;50.834;6.286;2022-09-27T04:38:38;12.20;99.90
15143;DHT22;7672;50.834;6.286;2022-09-27T04:41:05;12.40;99.90
15143;DHT22;7672;50.834;6.286;2022-09-27T04:43:33;12.20;99.90
15143;DHT22;7672;50.834;6.286;2022-09-27T04:46:00;12.30;99.90
15143;DHT22;7672;50.834;6.286;2022-09-27T04:48:26;12.20;99.90
15143;DHT22;7672;50.834;6.286;2022-09-27T04:50:58;12.10;99.90
15143;DHT22;7672;50.834;6.286;2022-09-27T04:53:27;12.10;99.90
15143;DHT22;7672;50.834;6.286;2022-09-27T04:55:55;12.10;99.90
15143;DHT22;7672;50.834;6.286;2022-09-27T04:58:22;12.10;99.90
15143;DHT22;7672;50.834;6.286;2022-09-27T05:00:50;12.10;99.90
15143;DHT22;7672;50.834;6.286;2022-09-27T05:03:21;12.10;99.90
15143;DHT22;7672;50.834;6.286;2022-09-27T05:05:48;12.10;99.90
15143;DHT22;7672;50.834;6.286;2022-09-27T05:08:15;12.10;99.90
15143;DHT22;7672;50.834;6.286;2022-09-27T05:10:42;12.10;99.90
15143;DHT22;7672;50.834;6.286;2022-09-27T05:13:09;12.40;99.90
15143;DHT22;7672;50.834;6.286;2022-09-27T05:15:36;12.10;99.90
15143;DHT22;7672;50.834;6.286;2022-09-27T05:18:02;12.00;99.90
15143;DHT22;7672;50.834;6.286;2022-09-27T05:20:29;12.10;99.90
15143;DHT22;7672;50.834;6.286;2022-09-27T05:22:56;12.10;99.90
15143;DHT22;7672;50.834;6.286;2022-09-27T05:25:23;12.10;99.90
15143;DHT22;7672;50.834;6.286;2022-09-27T05:27:50;12.10;99.90
15143;DHT22;7672;50.834;6.286;2022-09-27T05:30:17;12.10;99.90
15143;DHT22;7672;50.834;6.286;2022-09-27T05:32:45;12.10;99.90
15143;DHT22;7672;50.834;6.286;2022-09-27T05:35:16;12.10;99.90
15143;DHT22;7672;50.834;6.286;2022-09-27T05:37:54;12.10;99.90
15143;DHT22;7672;50.834;6.286;2022-09-27T05:40:26;12.10;99.90
15143;DHT22;7672;50.834;6.286;2022-09-27T05:43:07;12.10;99.90
15143;DHT22;7672;50.834;6.286;2022-09-27T05:45:34;12.10;99.90
15143;DHT22;7672;50.834;6.286;2022-09-27T05:48:01;12.10;99.90
15143;DHT22;7672;50.834;6.286;2022-09-27T05:50:28;12.10;99.90
15143;DHT22;7672;50.834;6.286;2022-09-27T05:52:55;12.10;99.90
15143;DHT22;7672;50.834;6.286;2022-09-27T05:55:21;12.10;99.90
15143;DHT22;7672;50.834;6.286;2022-09-27T05:58:00;12.10;99.90
15143;DHT22;7672;50.834;6.286;2022-09-27T06:00:30;12.10;99.90
15143;DHT22;7672;50.834;6.286;2022-09-27T06:03:02;12.20;99.90
15143;DHT22;7672;50.834;6.286;2022-09-27T06:05:34;12.20;99.90
15143;DHT22;7672;50.834;6.286;2022-09-27T06:08:05;12.20;99.90
15143;DHT22;7672;50.834;6.286;2022-09-27T06:10:34;12.30;99.90
15143;DHT22;7672;50.834;6.286;2022-09-27T06:13:03;12.30;99.90
15143;DHT22;7672;50.834;6.286;2022-09-27T06:15:38;12.40;99.90
15143;DHT22;7672;50.834;6.286;2022-09-27T06:18:08;12.40;99.90
15143;DHT22;7672;50.834;6.286;2022-09-27T06:20:39;13.00;99.90
15143;DHT22;7672;50.834;6.286;2022-09-27T06:23:11;12.40;99.90
15143;DHT22;7672;50.834;6.286;2022-09-27T06:25:40;12.50;99.90
15143;DHT22;7672;50.834;6.286;2022-09-27T06:28:08;12.50;99.90
15143;DHT22;7672;50.834;6.286;2022-09-27T06:30:39;12.60;99.90
15143;DHT22;7672;50.834;6.286;2022-09-27T06:33:16;12.60;99.90
15143;DHT22;7672;50.834;6.286;2022-09-27T06:35:45;12.90;99.90
15143;DHT22;7672;50.834;6.286;2022-09-27T06:38:16;12.60;99.90
15143;DHT22;7672;50.834;6.286;2022-09-27T06:40:44;12.70;99.90
15143;DHT22;7672;50.834;6.286;2022-09-27T06:43:13;13.10;99.90
15143;DHT22;7672;50.834;6.286;2022-09-27T06:45:42;12.80;99.90
15143;DHT22;7672;50.834;6.286;2022-09-27T06:48:10;12.80;99.90
15143;DHT22;7672;50.834;6.286;2022-09-27T06:50:42;12.80;99.90
15143;DHT22;7672;50.834;6.286;2022-09-27T06:53:12;13.00;99.90
15143;DHT22;7672;50.834;6.286;2022-09-27T06:55:40;13.20;99.90
15143;DHT22;7672;50.834;6.286;2022-09-27T06:58:11;13.50;99.90
15143;DHT22;7672;50.834;6.286;2022-09-27T07:00:57;13.80;99.90
15143;DHT22;7672;50.834;6.286;2022-09-27T07:03:24;13.90;99.90
15143;DHT22;7672;50.834;6.286;2022-09-27T07:06:05;14.00;99.90
15143;DHT22;7672;50.834;6.286;2022-09-27T07:08:35;14.10;99.90
15143;DHT22;7672;50.834;6.286;2022-09-27T07:11:05;14.20;99.90
15143;DHT22;7672;50.834;6.286;2022-09-27T07:13:33;14.30;99.90
15143;DHT22;7672;50.834;6.286;2022-09-27T07:16:05;14.40;99.90
15143;DHT22;7672;50.834;6.286;2022-09-27T07:18:33;14.40;99.90
15143;DHT22;7672;50.834;6.286;2022-09-27T07:21:00;14.40;99.90
15143;DHT22;7672;50.834;6.286;2022-09-27T07:23:27;14.50;99.90
15143;DHT22;7672;50.834;6.286;2022-09-27T07:25:54;14.50;99.90
15143;DHT22;7672;50.834;6.286;2022-09-27T07:28:21;14.80;99.90
15143;DHT22;7672;50.834;6.286;2022-09-27T07:30:52;14.50;99.90
15143;DHT22;7672;50.834;6.286;2022-09-27T07:33:21;14.50;99.90
15143;DHT22;7672;50.834;6.286;2022-09-27T07:35:48;14.50;99.90
15143;DHT22;7672;50.834;6.286;2022-09-27T07:38:14;14.60;99.90
15143;DHT22;7672;50.834;6.286;2022-09-27T07:40:42;15.20;99.90
15143;DHT22;7672;50.834;6.286;2022-09-27T07:43:09;15.00;99.90
15143;DHT22;7672;50.834;6.286;2022-09-27T07:45:37;15.20;99.90
15143;DHT22;7672;50.834;6.286;2022-09-27T07:48:05;15.60;99.90
15143;DHT22;7672;50.834;6.286;2022-09-27T07:50:34;15.60;99.90
15143;DHT22;7672;50.834;6.286;2022-09-27T07:53:01;15.80;99.90
15143;DHT22;7672;50.834;6.286;2022-09-27T07:55:27;15.90;99.90
15143;DHT22;7672;50.834;6.286;2022-09-27T07:58:02;16.00;99.90
15143;DHT22;7672;50.834;6.286;2022-09-27T08:00:30;16.10;99.90
15143;DHT22;7672;50.834;6.286;2022-09-27T08:02:57;16.20;99.90
15143;DHT22;7672;50.834;6.286;2022-09-27T08:05:24;16.30;99.90
15143;DHT22;7672;50.834;6.286;2022-09-27T08:07:54;16.40;99.90
15143;DHT22;7672;50.834;6.286;2022-09-27T08:10:24;16.50;99.90
15143;DHT22;7672;50.834;6.286;2022-09-27T08:12:58;16.60;99.90
15143;DHT22;7672;50.834;6.286;2022-09-27T08:15:26;16.70;99.90
15143;DHT22;7672;50.834;6.286;2022-09-27T08:17:54;16.80;99.90
15143;DHT22;7672;50.834;6.286;2022-09-27T08:20:21;16.90;99.90
15143;DHT22;7672;50.834;6.286;2022-09-27T08:22:48;16.90;99.90
15143;DHT22;7672;50.834;6.286;2022-09-27T08:25:15;16.90;99.90
15143;DHT22;7672;50.834;6.286;2022-09-27T08:27:42;16.90;99.90
15143;DHT22;7672;50.834;6.286;2022-09-27T08:30:09;16.90;99.90
15143;DHT22;7672;50.834;6.286;2022-09-27T08:32:36;16.80;99.90
15143;DHT22;7672;50.834;6.286;2022-09-27T08:35:04;16.70;99.90
15143;DHT22;7672;50.834;6.286;2022-09-27T08:37:32;16.70;99.90
15143;DHT22;7672;50.834;6.286;2022-09-27T08:40:00;16.60;99.90
15143;DHT22;7672;50.834;6.286;2022-09-27T08:42:39;16.60;99.90
15143;DHT22;7672;50.834;6.286;2022-09-27T08:45:19;16.70;99.90
15143;DHT22;7672;50.834;6.286;2022-09-27T08:47:58;16.70;99.90
15143;DHT22;7672;50.834;6.286;2022-09-27T08:50:40;16.80;99.90
15143;DHT22;7672;50.834;6.286;2022-09-27T08:55:58;17.00;99.90
15143;DHT22;7672;50.834;6.286;2022-09-27T09:01:16;17.20;99.90
15143;DHT22;7672;50.834;6.286;2022-09-27T09:03:47;17.10;99.90
15143;DHT22;7672;50.834;6.286;2022-09-27T09:06:18;17.30;99.90
15143;DHT22;7672;50.834;6.286;2022-09-27T09:09:02;17.20;99.90
15143;DHT22;7672;50.834;6.286;2022-09-27T09:15:02;17.20;99.90
15143;DHT22;7672;50.834;6.286;2022-09-27T09:21:02;17.40;99.90
15143;DHT22;7672;50.834;6.286;2022-09-27T09:26:55;17.60;99.90
15143;DHT22;7672;50.834;6.286;2022-09-27T09:35:54;17.70;99.90
15143;DHT22;7672;50.834;6.286;2022-09-27T09:38:37;17.80;99.90
15143;DHT22;7672;50.834;6.286;2022-09-27T09:41:32;17.70;99.90
15143;DHT22;7672;50.834;6.286;2022-09-27T09:44:26;17.70;99.90
15143;DHT22;7672;50.834;6.286;2022-09-27T09:47:00;17.70;99.90
15143;DHT22;7672;50.834;6.286;2022-09-27T09:49:33;17.70;99.90
15143;DHT22;7672;50.834;6.286;2022-09-27T09:52:10;17.80;99.90
15143;DHT22;7672;50.834;6.286;2022-09-27T09:54:54;17.70;99.90
15143;DHT22;7672;50.834;6.286;2022-09-27T09:57:41;17.70;99.90
15143;DHT22;7672;50.834;6.286;2022-09-27T10:00:17;17.80;99.90
15143;DHT22;7672;50.834;6.286;2022-09-27T10:02:46;17.70;99.90
15143;DHT22;7672;50.834;6.286;2022-09-27T10:05:23;17.70;99.90
15143;DHT22;7672;50.834;6.286;2022-09-27T10:07:53;17.70;99.90
15143;DHT22;7672;50.834;6.286;2022-09-27T10:10:24;17.70;99.90
15143;DHT22;7672;50.834;6.286;2022-09-27T10:12:51;17.70;99.90
15143;DHT22;7672;50.834;6.286;2022-09-27T10:15:27;17.70;99.90
15143;DHT22;7672;50.834;6.286;2022-09-27T10:17:57;17.70;99.90
15143;DHT22;7672;50.834;6.286;2022-09-27T10:20:48;17.70;99.90
15143;DHT22;7672;50.834;6.286;2022-09-27T10:23:20;17.70;99.90
15143;DHT22;7672;50.834;6.286;2022-09-27T10:25:55;17.80;99.90
15143;DHT22;7672;50.834;6.286;2022-09-27T10:28:32;17.70;99.90
15143;DHT22;7672;50.834;6.286;2022-09-27T10:31:02;17.80;99.90
15143;DHT22;7672;50.834;6.286;2022-09-27T10:33:31;17.80;99.90
15143;DHT22;7672;50.834;6.286;2022-09-27T10:36:00;18.00;99.90
15143;DHT22;7672;50.834;6.286;2022-09-27T10:38:35;17.70;99.90
15143;DHT22;7672;50.834;6.286;2022-09-27T10:41:25;17.70;99.90
15143;DHT22;7672;50.834;6.286;2022-09-27T10:44:24;17.70;99.90
15143;DHT22;7672;50.834;6.286;2022-09-27T10:47:00;17.70;99.90
15143;DHT22;7672;50.834;6.286;2022-09-27T10:49:33;17.80;99.90
15143;DHT22;7672;50.834;6.286;2022-09-27T10:52:15;17.70;99.90
15143;DHT22;7672;50.834;6.286;2022-09-27T10:54:55;17.70;99.90
15143;DHT22;7672;50.834;6.286;2022-09-27T10:57:39;17.70;99.90
15143;DHT22;7672;50.834;6.286;2022-09-27T11:00:24;17.80;99.90
15143;DHT22;7672;50.834;6.286;2022-09-27T11:02:56;17.70;99.90
15143;DHT22;7672;50.834;6.286;2022-09-27T11:05:32;17.60;99.90
15143;DHT22;7672;50.834;6.286;2022-09-27T11:10:44;17.60;99.90
15143;DHT22;7672;50.834;6.286;2022-09-27T11:13:27;17.60;99.90
15143;DHT22;7672;50.834;6.286;2022-09-27T11:28:05;17.50;99.90
15143;DHT22;7672;50.834;6.286;2022-09-27T11:42:58;17.00;99.90
15143;DHT22;7672;50.834;6.286;2022-09-27T12:04:18;16.70;99.90
15143;DHT22;7672;50.834;6.286;2022-09-27T12:07:06;16.80;99.90
15143;DHT22;7672;50.834;6.286;2022-09-27T12:09:42;16.80;99.90
15143;DHT22;7672;50.834;6.286;2022-09-27T12:12:18;16.80;99.90
15143;DHT22;7672;50.834;6.286;2022-09-27T12:14:57;16.90;99.90
15143;DHT22;7672;50.834;6.286;2022-09-27T12:17:38;17.00;99.90
15143;DHT22;7672;50.834;6.286;2022-09-27T12:20:19;17.10;99.90
15143;DHT22;7672;50.834;6.286;2022-09-27T12:23:06;17.20;99.90
15143;DHT22;7672;50.834;6.286;2022-09-27T12:25:40;17.30;99.90
15143;DHT22;7672;50.834;6.286;2022-09-27T12:28:18;17.40;99.90
15143;DHT22;7672;50.834;6.286;2022-09-27T12:31:08;17.40;99.90
15143;DHT22;7672;50.834;6.286;2022-09-27T12:34:31;17.50;99.90
15143;DHT22;7672;50.834;6.286;2022-09-27T12:37:20;17.50;99.90
15143;DHT22;7672;50.834;6.286;2022-09-27T12:39:59;17.50;99.90
15143;DHT22;7672;50.834;6.286;2022-09-27T12:42:41;17.50;99.90
15143;DHT22;7672;50.834;6.286;2022-09-27T12:45:57;17.50;99.90
15143;DHT22;7672;50.834;6.286;2022-09-27T12:51:23;17.30;99.90
15143;DHT22;7672;50.834;6.286;2022-09-27T12:56:55;17.20;99.90
15143;DHT22;7672;50.834;6.286;2022-09-27T13:06:13;16.90;99.90
15143;DHT22;7672;50.834;6.286;2022-09-27T13:15:06;16.90;99.90
15143;DHT22;7672;50.834;6.286;2022-09-27T13:17:50;17.00;99.90
15143;DHT22;7672;50.834;6.286;2022-09-27T13:31:14;17.30;99.90
15143;DHT22;7672;50.834;6.286;2022-09-27T13:36:16;17.30;99.90
15143;DHT22;7672;50.834;6.286;2022-09-27T13:45:16;17.50;99.90
15143;DHT22;7672;50.834;6.286;2022-09-27T13:47:31;17.60;99.90
15143;DHT22;7672;50.834;6.286;2022-09-27T13:50:16;17.80;99.90
15143;DHT22;7672;50.834;6.286;2022-09-27T13:55:45;18.00;99.90
15143;DHT22;7672;50.834;6.286;2022-09-27T13:58:46;18.40;99.90
15143;DHT22;7672;50.834;6.286;2022-09-27T14:01:19;18.20;99.90
15143;DHT22;7672;50.834;6.286;2022-09-27T14:04:02;18.20;99.90
15143;DHT22;7672;50.834;6.286;2022-09-27T14:06:42;18.20;99.90
15143;DHT22;7672;50.834;6.286;2022-09-27T14:09:20;18.50;99.90
15143;DHT22;7672;50.834;6.286;2022-09-27T14:11:57;18.10;99.90
15143;DHT22;7672;50.834;6.286;2022-09-27T14:14:29;18.10;99.90
15143;DHT22;7672;50.834;6.286;2022-09-27T14:16:59;17.90;99.90
15143;DHT22;7672;50.834;6.286;2022-09-27T14:19:27;18.50;99.90
15143;DHT22;7672;50.834;6.286;2022-09-27T14:21:55;17.90;99.90
15143;DHT22;7672;50.834;6.286;2022-09-27T14:24:42;17.80;99.90
15143;DHT22;7672;50.834;6.286;2022-09-27T14:29:52;17.50;99.90
15143;DHT22;7672;50.834;6.286;2022-09-27T14:32:25;17.20;99.90
15143;DHT22;7672;50.834;6.286;2022-09-27T14:38:19;17.00;99.90
15143;DHT22;7672;50.834;6.286;2022-09-27T14:41:06;16.50;99.90
15143;DHT22;7672;50.834;6.286;2022-09-27T14:43:35;16.30;99.90
15143;DHT22;7672;50.834;6.286;2022-09-27T14:46:29;16.20;99.90
15143;DHT22;7672;50.834;6.286;2022-09-27T14:48:57;16.00;99.90
15143;DHT22;7672;50.834;6.286;2022-09-27T14:51:28;16.20;99.90
15143;DHT22;7672;50.834;6.286;2022-09-27T14:53:58;15.80;99.90
15143;DHT22;7672;50.834;6.286;2022-09-27T14:56:29;15.70;99.90
15143;DHT22;7672;50.834;6.286;2022-09-27T14:59:03;15.70;99.90
15143;DHT22;7672;50.834;6.286;2022-09-27T15:01:37;15.70;99.90
15143;DHT22;7672;50.834;6.286;2022-09-27T15:04:11;15.70;99.90
15143;DHT22;7672;50.834;6.286;2022-09-27T15:06:40;15.60;99.90
15143;DHT22;7672;50.834;6.286;2022-09-27T15:09:11;15.60;99.90
15143;DHT22;7672;50.834;6.286;2022-09-27T15:11:40;15.60;99.90
15143;DHT22;7672;50.834;6.286;2022-09-27T15:14:14;15.70;99.90
15143;DHT22;7672;50.834;6.286;2022-09-27T15:16:45;15.60;99.90
15143;DHT22;7672;50.834;6.286;2022-09-27T15:19:25;15.70;99.90
15143;DHT22;7672;50.834;6.286;2022-09-27T15:21:55;15.70;99.90
15143;DHT22;7672;50.834;6.286;2022-09-27T15:29:52;15.70;99.90
15143;DHT22;7672;50.834;6.286;2022-09-27T15:32:22;15.70;99.90
15143;DHT22;7672;50.834;6.286;2022-09-27T15:34:51;15.60;99.90
15143;DHT22;7672;50.834;6.286;2022-09-27T15:37:34;15.60;99.90
15143;DHT22;7672;50.834;6.286;2022-09-27T15:43:12;15.50;99.90
15143;DHT22;7672;50.834;6.286;2022-09-27T15:45:50;15.40;99.90
15143;DHT22;7672;50.834;6.286;2022-09-27T15:48:19;15.40;99.90
15143;DHT22;7672;50.834;6.286;2022-09-27T15:50:47;15.40;99.90
15143;DHT22;7672;50.834;6.286;2022-09-27T15:56:01;15.20;99.90
15143;DHT22;7672;50.834;6.286;2022-09-27T15:58:33;15.30;99.90
15143;DHT22;7672;50.834;6.286;2022-09-27T16:01:03;15.20;99.90
15143;DHT22;7672;50.834;6.286;2022-09-27T16:03:34;15.20;99.90
15143;DHT22;7672;50.834;6.286;2022-09-27T16:06:02;15.20;99.90
15143;DHT22;7672;50.834;6.286;2022-09-27T16:08:29;15.20;99.90
15143;DHT22;7672;50.834;6.286;2022-09-27T16:10:57;15.10;99.90
15143;DHT22;7672;50.834;6.286;2022-09-27T16:13:26;15.10;99.90
15143;DHT22;7672;50.834;6.286;2022-09-27T16:15:59;15.10;99.90
15143;DHT22;7672;50.834;6.286;2022-09-27T16:18:27;15.10;99.90
15143;DHT22;7672;50.834;6.286;2022-09-27T16:20:57;15.10;99.90
15143;DHT22;7672;50.834;6.286;2022-09-27T16:23:24;15.10;99.90
15143;DHT22;7672;50.834;6.286;2022-09-27T16:25:52;15.10;99.90
15143;DHT22;7672;50.834;6.286;2022-09-27T16:28:19;15.10;99.90
15143;DHT22;7672;50.834;6.286;2022-09-27T16:30:46;15.10;99.90
15143;DHT22;7672;50.834;6.286;2022-09-27T16:33:13;15.10;99.90
15143;DHT22;7672;50.834;6.286;2022-09-27T16:35:40;15.10;99.90
15143;DHT22;7672;50.834;6.286;2022-09-27T16:38:07;15.10;99.90
15143;DHT22;7672;50.834;6.286;2022-09-27T16:40:36;15.10;99.90
15143;DHT22;7672;50.834;6.286;2022-09-27T16:43:03;15.10;99.90
15143;DHT22;7672;50.834;6.286;2022-09-27T16:45:33;15.10;99.90
15143;DHT22;7672;50.834;6.286;2022-09-27T16:48:01;15.00;99.90
15143;DHT22;7672;50.834;6.286;2022-09-27T16:50:28;15.00;99.90
15143;DHT22;7672;50.834;6.286;2022-09-27T16:53:14;15.30;99.90
15143;DHT22;7672;50.834;6.286;2022-09-27T16:55:41;14.90;99.90
15143;DHT22;7672;50.834;6.286;2022-09-27T16:58:08;14.90;99.90
15143;DHT22;7672;50.834;6.286;2022-09-27T17:00:34;14.80;99.90
15143;DHT22;7672;50.834;6.286;2022-09-27T17:03:01;14.80;99.90
15143;DHT22;7672;50.834;6.286;2022-09-27T17:05:28;14.80;99.90
15143;DHT22;7672;50.834;6.286;2022-09-27T17:07:55;14.80;99.90
15143;DHT22;7672;50.834;6.286;2022-09-27T17:10:22;14.70;99.90
15143;DHT22;7672;50.834;6.286;2022-09-27T17:12:49;15.20;99.90
15143;DHT22;7672;50.834;6.286;2022-09-27T17:15:17;14.70;99.90
15143;DHT22;7672;50.834;6.286;2022-09-27T17:17:47;14.70;99.90
15143;DHT22;7672;50.834;6.286;2022-09-27T17:20:16;14.70;99.90
15143;DHT22;7672;50.834;6.286;2022-09-27T17:22:42;14.60;99.90
15143;DHT22;7672;50.834;6.286;2022-09-27T17:25:09;14.60;99.90
15143;DHT22;7672;50.834;6.286;2022-09-27T17:27:37;14.50;99.90
15143;DHT22;7672;50.834;6.286;2022-09-27T17:30:04;14.50;99.90
15143;DHT22;7672;50.834;6.286;2022-09-27T17:32:32;14.50;99.90
15143;DHT22;7672;50.834;6.286;2022-09-27T17:35:00;14.40;99.90
15143;DHT22;7672;50.834;6.286;2022-09-27T17:37:28;14.40;99.90
15143;DHT22;7672;50.834;6.286;2022-09-27T17:39:54;14.40;99.90
15143;DHT22;7672;50.834;6.286;2022-09-27T17:42:22;14.30;99.90
15143;DHT22;7672;50.834;6.286;2022-09-27T17:44:50;14.30;99.90
15143;DHT22;7672;50.834;6.286;2022-09-27T17:47:17;14.30;99.90
15143;DHT22;7672;50.834;6.286;2022-09-27T17:50:03;14.30;99.90
15143;DHT22;7672;50.834;6.286;2022-09-27T17:52:48;14.20;99.90
15143;DHT22;7672;50.834;6.286;2022-09-27T17:55:15;14.20;99.90
15143;DHT22;7672;50.834;6.286;2022-09-27T17:57:42;14.10;99.90
15143;DHT22;7672;50.834;6.286;2022-09-27T18:00:11;14.10;99.90
15143;DHT22;7672;50.834;6.286;2022-09-27T18:02:39;14.00;99.90
15143;DHT22;7672;50.834;6.286;2022-09-27T18:05:06;14.00;99.90
15143;DHT22;7672;50.834;6.286;2022-09-27T18:07:33;14.00;99.90
15143;DHT22;7672;50.834;6.286;2022-09-27T18:10:00;14.40;99.90
15143;DHT22;7672;50.834;6.286;2022-09-27T18:12:27;13.90;99.90
15143;DHT22;7672;50.834;6.286;2022-09-27T18:15:00;13.90;99.90
15143;DHT22;7672;50.834;6.286;2022-09-27T18:17:27;13.90;99.90
15143;DHT22;7672;50.834;6.286;2022-09-27T18:19:54;14.40;99.90
15143;DHT22;7672;50.834;6.286;2022-09-27T18:22:23;13.80;99.90
15143;DHT22;7672;50.834;6.286;2022-09-27T18:24:54;13.70;99.90
15143;DHT22;7672;50.834;6.286;2022-09-27T18:27:21;13.70;99.90
15143;DHT22;7672;50.834;6.286;2022-09-27T18:29:48;13.60;99.90
15143;DHT22;7672;50.834;6.286;2022-09-27T18:32:15;13.60;99.90
15143;DHT22;7672;50.834;6.286;2022-09-27T18:34:41;13.50;99.90
15143;DHT22;7672;50.834;6.286;2022-09-27T18:37:08;13.50;99.90
15143;DHT22;7672;50.834;6.286;2022-09-27T18:39:35;13.50;99.90
15143;DHT22;7672;50.834;6.286;2022-09-27T18:42:02;13.40;99.90
15143;DHT22;7672;50.834;6.286;2022-09-27T18:44:28;13.40;99.90
15143;DHT22;7672;50.834;6.286;2022-09-27T18:46:55;13.40;99.90
15143;DHT22;7672;50.834;6.286;2022-09-27T18:49:24;13.30;99.90
15143;DHT22;7672;50.834;6.286;2022-09-27T18:51:59;13.30;99.90
15143;DHT22;7672;50.834;6.286;2022-09-27T18:54:26;13.30;99.90
15143;DHT22;7672;50.834;6.286;2022-09-27T18:56:52;13.30;99.90
15143;DHT22;7672;50.834;6.286;2022-09-27T18:59:20;13.30;99.90
15143;DHT22;7672;50.834;6.286;2022-09-27T19:01:49;13.30;99.90
15143;DHT22;7672;50.834;6.286;2022-09-27T19:04:18;13.20;99.90
15143;DHT22;7672;50.834;6.286;2022-09-27T19:06:50;13.20;99.90
15143;DHT22;7672;50.834;6.286;2022-09-27T19:09:21;13.10;99.90
15143;DHT22;7672;50.834;6.286;2022-09-27T19:11:48;13.10;99.90
15143;DHT22;7672;50.834;6.286;2022-09-27T19:14:17;13.10;99.90